sensor_id;sensor_type;location;lat;lon;timestamp;P1;durP1;ratioP1;P2;durP2;ratioP2
29634;SDS011;16557;54.762;56.068;2023-08-17T00:02:09;6.40;;;4.35;;
29634;SDS011;16557;54.762;56.068;2023-08-17T00:04:38;7.95;;;4.60;;
29634;SDS011;16557;54.762;56.068;2023-08-17T00:07:08;5.28;;;4.47;;
29634;SDS011;16557;54.762;56.068;2023-08-17T00:09:37;6.03;;;4.30;;
29634;SDS011;16557;54.762;56.068;2023-08-17T00:12:07;7.08;;;4.58;;
29634;SDS011;16557;54.762;56.068;2023-08-17T00:14:36;9.25;;;4.95;;
29634;SDS011;16557;54.762;56.068;2023-08-17T00:17:05;7.55;;;5.45;;
29634;SDS011;16557;54.762;56.068;2023-08-17T00:19:34;6.50;;;5.35;;
29634;SDS011;16557;54.762;56.068;2023-08-17T00:22:03;6.35;;;4.35;;
29634;SDS011;16557;54.762;56.068;2023-08-17T00:24:33;7.30;;;4.37;;
29634;SDS011;16557;54.762;56.068;2023-08-17T00:27:02;7.20;;;4.67;;
29634;SDS011;16557;54.762;56.068;2023-08-17T00:29:31;12.07;;;5.45;;
29634;SDS011;16557;54.762;56.068;2023-08-17T00:32:02;6.87;;;5.25;;
29634;SDS011;16557;54.762;56.068;2023-08-17T00:34:32;8.55;;;4.92;;
29634;SDS011;16557;54.762;56.068;2023-08-17T00:37:01;6.47;;;4.47;;
29634;SDS011;16557;54.762;56.068;2023-08-17T00:39:30;10.48;;;5.87;;
29634;SDS011;16557;54.762;56.068;2023-08-17T00:41:59;8.35;;;4.92;;
29634;SDS011;16557;54.762;56.068;2023-08-17T00:44:29;9.38;;;4.60;;
29634;SDS011;16557;54.762;56.068;2023-08-17T00:46:58;7.70;;;5.00;;
29634;SDS011;16557;54.762;56.068;2023-08-17T00:49:28;7.62;;;4.65;;
29634;SDS011;16557;54.762;56.068;2023-08-17T00:51:57;7.78;;;5.25;;
29634;SDS011;16557;54.762;56.068;2023-08-17T00:54:26;6.53;;;4.75;;
29634;SDS011;16557;54.762;56.068;2023-08-17T00:56:56;10.90;;;4.65;;
29634;SDS011;16557;54.762;56.068;2023-08-17T00:59:26;8.83;;;5.50;;
29634;SDS011;16557;54.762;56.068;2023-08-17T01:01:56;5.37;;;4.42;;
29634;SDS011;16557;54.762;56.068;2023-08-17T01:04:25;6.67;;;5.12;;
29634;SDS011;16557;54.762;56.068;2023-08-17T01:06:54;6.97;;;4.90;;
29634;SDS011;16557;54.762;56.068;2023-08-17T01:09:23;8.03;;;5.00;;
29634;SDS011;16557;54.762;56.068;2023-08-17T01:11:54;7.83;;;5.25;;
29634;SDS011;16557;54.762;56.068;2023-08-17T01:14:50;8.15;;;4.85;;
29634;SDS011;16557;54.762;56.068;2023-08-17T01:17:26;11.28;;;5.50;;
29634;SDS011;16557;54.762;56.068;2023-08-17T01:19:58;10.78;;;6.92;;
29634;SDS011;16557;54.762;56.068;2023-08-17T01:22:27;18.23;;;13.70;;
29634;SDS011;16557;54.762;56.068;2023-08-17T01:25:00;8.60;;;5.40;;
29634;SDS011;16557;54.762;56.068;2023-08-17T01:27:43;6.65;;;4.72;;
29634;SDS011;16557;54.762;56.068;2023-08-17T01:30:02;8.40;;;5.00;;
29634;SDS011;16557;54.762;56.068;2023-08-17T01:32:39;7.17;;;4.92;;
29634;SDS011;16557;54.762;56.068;2023-08-17T01:35:30;13.38;;;5.28;;
29634;SDS011;16557;54.762;56.068;2023-08-17T01:38:04;8.03;;;5.22;;
29634;SDS011;16557;54.762;56.068;2023-08-17T01:40:38;10.58;;;5.80;;
29634;SDS011;16557;54.762;56.068;2023-08-17T01:43:07;8.75;;;5.25;;
29634;SDS011;16557;54.762;56.068;2023-08-17T01:45:37;9.15;;;5.12;;
29634;SDS011;16557;54.762;56.068;2023-08-17T01:48:07;7.35;;;5.10;;
29634;SDS011;16557;54.762;56.068;2023-08-17T01:50:36;6.58;;;5.15;;
29634;SDS011;16557;54.762;56.068;2023-08-17T01:53:05;6.87;;;5.20;;
29634;SDS011;16557;54.762;56.068;2023-08-17T01:55:35;10.08;;;5.28;;
29634;SDS011;16557;54.762;56.068;2023-08-17T01:58:05;8.03;;;5.05;;
29634;SDS011;16557;54.762;56.068;2023-08-17T02:00:34;9.20;;;4.70;;
29634;SDS011;16557;54.762;56.068;2023-08-17T02:03:03;9.18;;;5.40;;
29634;SDS011;16557;54.762;56.068;2023-08-17T02:05:33;11.85;;;5.45;;
29634;SDS011;16557;54.762;56.068;2023-08-17T02:08:02;12.43;;;5.42;;
29634;SDS011;16557;54.762;56.068;2023-08-17T02:10:31;9.58;;;5.45;;
29634;SDS011;16557;54.762;56.068;2023-08-17T02:13:01;7.58;;;5.53;;
29634;SDS011;16557;54.762;56.068;2023-08-17T02:15:30;9.58;;;5.37;;
29634;SDS011;16557;54.762;56.068;2023-08-17T02:18:00;8.75;;;5.12;;
29634;SDS011;16557;54.762;56.068;2023-08-17T02:20:30;13.30;;;5.37;;
29634;SDS011;16557;54.762;56.068;2023-08-17T02:22:59;10.45;;;4.97;;
29634;SDS011;16557;54.762;56.068;2023-08-17T02:25:28;11.75;;;5.17;;
29634;SDS011;16557;54.762;56.068;2023-08-17T02:27:59;13.78;;;4.90;;
29634;SDS011;16557;54.762;56.068;2023-08-17T02:30:31;9.78;;;5.40;;
29634;SDS011;16557;54.762;56.068;2023-08-17T02:33:00;8.45;;;4.55;;
29634;SDS011;16557;54.762;56.068;2023-08-17T02:35:29;9.08;;;5.20;;
29634;SDS011;16557;54.762;56.068;2023-08-17T02:37:59;8.88;;;5.42;;
29634;SDS011;16557;54.762;56.068;2023-08-17T02:40:28;9.48;;;5.10;;
29634;SDS011;16557;54.762;56.068;2023-08-17T02:42:57;10.38;;;4.95;;
29634;SDS011;16557;54.762;56.068;2023-08-17T02:45:26;10.32;;;5.22;;
29634;SDS011;16557;54.762;56.068;2023-08-17T02:47:56;10.85;;;5.15;;
29634;SDS011;16557;54.762;56.068;2023-08-17T02:50:25;13.40;;;5.78;;
29634;SDS011;16557;54.762;56.068;2023-08-17T02:52:54;8.70;;;5.05;;
29634;SDS011;16557;54.762;56.068;2023-08-17T02:55:23;11.68;;;5.15;;
29634;SDS011;16557;54.762;56.068;2023-08-17T02:57:53;7.60;;;5.03;;
29634;SDS011;16557;54.762;56.068;2023-08-17T03:00:22;15.58;;;5.33;;
29634;SDS011;16557;54.762;56.068;2023-08-17T03:02:51;11.80;;;5.05;;
29634;SDS011;16557;54.762;56.068;2023-08-17T03:05:21;8.05;;;4.80;;
29634;SDS011;16557;54.762;56.068;2023-08-17T03:07:50;6.67;;;4.97;;
29634;SDS011;16557;54.762;56.068;2023-08-17T03:10:20;7.40;;;5.03;;
29634;SDS011;16557;54.762;56.068;2023-08-17T03:12:49;9.70;;;5.40;;
29634;SDS011;16557;54.762;56.068;2023-08-17T03:15:18;14.58;;;5.70;;
29634;SDS011;16557;54.762;56.068;2023-08-17T03:17:47;14.35;;;5.42;;
29634;SDS011;16557;54.762;56.068;2023-08-17T03:20:17;9.08;;;4.62;;
29634;SDS011;16557;54.762;56.068;2023-08-17T03:22:46;9.43;;;4.90;;
29634;SDS011;16557;54.762;56.068;2023-08-17T03:25:15;14.28;;;9.78;;
29634;SDS011;16557;54.762;56.068;2023-08-17T03:27:46;17.85;;;7.45;;
29634;SDS011;16557;54.762;56.068;2023-08-17T03:30:15;13.43;;;5.33;;
29634;SDS011;16557;54.762;56.068;2023-08-17T03:32:44;9.10;;;5.15;;
29634;SDS011;16557;54.762;56.068;2023-08-17T03:35:13;10.70;;;5.37;;
29634;SDS011;16557;54.762;56.068;2023-08-17T03:37:43;9.60;;;4.80;;
29634;SDS011;16557;54.762;56.068;2023-08-17T03:40:15;10.00;;;4.65;;
29634;SDS011;16557;54.762;56.068;2023-08-17T03:42:44;14.18;;;5.15;;
29634;SDS011;16557;54.762;56.068;2023-08-17T03:45:14;11.20;;;9.45;;
29634;SDS011;16557;54.762;56.068;2023-08-17T03:47:43;12.03;;;5.92;;
29634;SDS011;16557;54.762;56.068;2023-08-17T03:50:12;8.50;;;5.10;;
29634;SDS011;16557;54.762;56.068;2023-08-17T03:52:42;13.25;;;5.45;;
29634;SDS011;16557;54.762;56.068;2023-08-17T03:55:11;10.58;;;5.65;;
29634;SDS011;16557;54.762;56.068;2023-08-17T03:57:40;13.38;;;6.08;;
29634;SDS011;16557;54.762;56.068;2023-08-17T04:00:10;12.05;;;5.80;;
29634;SDS011;16557;54.762;56.068;2023-08-17T04:02:39;9.55;;;5.65;;
29634;SDS011;16557;54.762;56.068;2023-08-17T04:05:09;13.25;;;5.72;;
29634;SDS011;16557;54.762;56.068;2023-08-17T04:07:38;8.98;;;5.20;;
29634;SDS011;16557;54.762;56.068;2023-08-17T04:10:08;12.95;;;5.87;;
29634;SDS011;16557;54.762;56.068;2023-08-17T04:12:37;10.18;;;5.55;;
29634;SDS011;16557;54.762;56.068;2023-08-17T04:15:06;10.50;;;5.97;;
29634;SDS011;16557;54.762;56.068;2023-08-17T04:17:36;13.68;;;6.03;;
29634;SDS011;16557;54.762;56.068;2023-08-17T04:20:06;13.03;;;7.22;;
29634;SDS011;16557;54.762;56.068;2023-08-17T04:22:36;13.53;;;8.88;;
29634;SDS011;16557;54.762;56.068;2023-08-17T04:25:05;11.43;;;6.50;;
29634;SDS011;16557;54.762;56.068;2023-08-17T04:27:34;10.13;;;5.70;;
29634;SDS011;16557;54.762;56.068;2023-08-17T04:30:04;17.92;;;6.15;;
29634;SDS011;16557;54.762;56.068;2023-08-17T04:32:34;18.65;;;6.17;;
29634;SDS011;16557;54.762;56.068;2023-08-17T04:35:03;12.93;;;6.03;;
29634;SDS011;16557;54.762;56.068;2023-08-17T04:37:33;9.33;;;5.42;;
29634;SDS011;16557;54.762;56.068;2023-08-17T04:40:02;11.18;;;5.80;;
29634;SDS011;16557;54.762;56.068;2023-08-17T04:42:32;13.55;;;5.78;;
29634;SDS011;16557;54.762;56.068;2023-08-17T04:45:01;10.32;;;5.90;;
29634;SDS011;16557;54.762;56.068;2023-08-17T04:47:31;8.83;;;5.72;;
29634;SDS011;16557;54.762;56.068;2023-08-17T04:50:00;10.03;;;5.97;;
29634;SDS011;16557;54.762;56.068;2023-08-17T04:52:30;10.75;;;5.65;;
29634;SDS011;16557;54.762;56.068;2023-08-17T04:54:59;11.10;;;6.10;;
29634;SDS011;16557;54.762;56.068;2023-08-17T04:57:29;13.28;;;6.58;;
29634;SDS011;16557;54.762;56.068;2023-08-17T04:59:58;10.10;;;5.78;;
29634;SDS011;16557;54.762;56.068;2023-08-17T05:02:28;10.93;;;5.83;;
29634;SDS011;16557;54.762;56.068;2023-08-17T05:04:58;11.75;;;6.28;;
29634;SDS011;16557;54.762;56.068;2023-08-17T05:07:27;10.75;;;5.80;;
29634;SDS011;16557;54.762;56.068;2023-08-17T05:09:57;11.63;;;6.37;;
29634;SDS011;16557;54.762;56.068;2023-08-17T05:12:26;9.48;;;5.87;;
29634;SDS011;16557;54.762;56.068;2023-08-17T05:14:56;10.75;;;5.60;;
29634;SDS011;16557;54.762;56.068;2023-08-17T05:17:25;16.73;;;6.47;;
29634;SDS011;16557;54.762;56.068;2023-08-17T05:19:54;12.90;;;6.85;;
29634;SDS011;16557;54.762;56.068;2023-08-17T05:22:24;11.55;;;6.62;;
29634;SDS011;16557;54.762;56.068;2023-08-17T05:24:53;35.17;;;7.50;;
29634;SDS011;16557;54.762;56.068;2023-08-17T05:27:22;9.10;;;6.42;;
29634;SDS011;16557;54.762;56.068;2023-08-17T05:29:51;9.78;;;6.35;;
29634;SDS011;16557;54.762;56.068;2023-08-17T05:32:20;12.85;;;6.47;;
29634;SDS011;16557;54.762;56.068;2023-08-17T05:34:50;18.77;;;14.00;;
29634;SDS011;16557;54.762;56.068;2023-08-17T05:37:19;11.12;;;6.75;;
29634;SDS011;16557;54.762;56.068;2023-08-17T05:39:48;22.42;;;18.40;;
29634;SDS011;16557;54.762;56.068;2023-08-17T05:42:17;22.05;;;11.33;;
29634;SDS011;16557;54.762;56.068;2023-08-17T05:44:47;9.38;;;6.62;;
29634;SDS011;16557;54.762;56.068;2023-08-17T05:47:16;17.00;;;6.83;;
29634;SDS011;16557;54.762;56.068;2023-08-17T05:49:46;49.05;;;9.80;;
29634;SDS011;16557;54.762;56.068;2023-08-17T05:52:15;12.58;;;7.72;;
29634;SDS011;16557;54.762;56.068;2023-08-17T05:54:45;9.70;;;6.30;;
29634;SDS011;16557;54.762;56.068;2023-08-17T05:57:14;13.55;;;6.97;;
29634;SDS011;16557;54.762;56.068;2023-08-17T05:59:43;8.60;;;6.40;;
29634;SDS011;16557;54.762;56.068;2023-08-17T06:02:12;15.63;;;6.80;;
29634;SDS011;16557;54.762;56.068;2023-08-17T06:04:42;10.38;;;5.75;;
29634;SDS011;16557;54.762;56.068;2023-08-17T06:07:11;11.48;;;6.00;;
29634;SDS011;16557;54.762;56.068;2023-08-17T06:09:40;9.83;;;5.80;;
29634;SDS011;16557;54.762;56.068;2023-08-17T06:12:09;10.68;;;5.72;;
29634;SDS011;16557;54.762;56.068;2023-08-17T06:14:39;13.78;;;5.42;;
29634;SDS011;16557;54.762;56.068;2023-08-17T06:17:09;12.35;;;6.33;;
29634;SDS011;16557;54.762;56.068;2023-08-17T06:19:38;9.98;;;6.12;;
29634;SDS011;16557;54.762;56.068;2023-08-17T06:22:08;12.70;;;6.12;;
29634;SDS011;16557;54.762;56.068;2023-08-17T06:24:37;19.45;;;5.75;;
29634;SDS011;16557;54.762;56.068;2023-08-17T06:27:06;12.30;;;6.03;;
29634;SDS011;16557;54.762;56.068;2023-08-17T06:29:35;9.78;;;5.62;;
29634;SDS011;16557;54.762;56.068;2023-08-17T06:32:05;12.07;;;5.45;;
29634;SDS011;16557;54.762;56.068;2023-08-17T06:34:34;14.90;;;5.37;;
29634;SDS011;16557;54.762;56.068;2023-08-17T06:37:03;9.30;;;4.45;;
29634;SDS011;16557;54.762;56.068;2023-08-17T06:39:33;9.10;;;5.08;;
29634;SDS011;16557;54.762;56.068;2023-08-17T06:42:02;9.80;;;3.85;;
29634;SDS011;16557;54.762;56.068;2023-08-17T06:44:32;16.40;;;4.72;;
29634;SDS011;16557;54.762;56.068;2023-08-17T06:47:02;8.23;;;3.80;;
29634;SDS011;16557;54.762;56.068;2023-08-17T06:49:31;7.05;;;3.30;;
29634;SDS011;16557;54.762;56.068;2023-08-17T06:52:00;9.30;;;3.47;;
29634;SDS011;16557;54.762;56.068;2023-08-17T06:54:29;7.60;;;3.22;;
29634;SDS011;16557;54.762;56.068;2023-08-17T06:56:59;6.22;;;4.10;;
29634;SDS011;16557;54.762;56.068;2023-08-17T06:59:28;7.03;;;3.30;;
29634;SDS011;16557;54.762;56.068;2023-08-17T07:01:58;7.97;;;3.62;;
29634;SDS011;16557;54.762;56.068;2023-08-17T07:04:27;9.95;;;3.60;;
29634;SDS011;16557;54.762;56.068;2023-08-17T07:06:56;7.10;;;3.42;;
29634;SDS011;16557;54.762;56.068;2023-08-17T07:09:26;7.05;;;3.40;;
29634;SDS011;16557;54.762;56.068;2023-08-17T07:11:55;11.35;;;3.30;;
29634;SDS011;16557;54.762;56.068;2023-08-17T07:14:24;10.28;;;3.50;;
29634;SDS011;16557;54.762;56.068;2023-08-17T07:16:55;8.73;;;3.15;;
29634;SDS011;16557;54.762;56.068;2023-08-17T07:19:24;7.08;;;3.45;;
29634;SDS011;16557;54.762;56.068;2023-08-17T07:21:53;6.28;;;2.77;;
29634;SDS011;16557;54.762;56.068;2023-08-17T07:24:22;3.55;;;2.55;;
29634;SDS011;16557;54.762;56.068;2023-08-17T07:26:52;6.45;;;3.67;;
29634;SDS011;16557;54.762;56.068;2023-08-17T07:29:21;7.75;;;3.50;;
29634;SDS011;16557;54.762;56.068;2023-08-17T07:31:51;10.15;;;3.90;;
29634;SDS011;16557;54.762;56.068;2023-08-17T07:34:21;4.78;;;3.15;;
29634;SDS011;16557;54.762;56.068;2023-08-17T07:36:50;9.45;;;3.52;;
29634;SDS011;16557;54.762;56.068;2023-08-17T07:39:20;9.15;;;3.10;;
29634;SDS011;16557;54.762;56.068;2023-08-17T07:41:49;10.45;;;3.65;;
29634;SDS011;16557;54.762;56.068;2023-08-17T07:44:18;8.38;;;3.70;;
29634;SDS011;16557;54.762;56.068;2023-08-17T07:46:47;7.08;;;3.47;;
29634;SDS011;16557;54.762;56.068;2023-08-17T07:49:16;8.35;;;3.87;;
29634;SDS011;16557;54.762;56.068;2023-08-17T07:51:47;8.00;;;3.70;;
29634;SDS011;16557;54.762;56.068;2023-08-17T07:54:16;8.35;;;3.83;;
29634;SDS011;16557;54.762;56.068;2023-08-17T07:56:45;7.03;;;3.10;;
29634;SDS011;16557;54.762;56.068;2023-08-17T07:59:15;4.72;;;2.85;;
29634;SDS011;16557;54.762;56.068;2023-08-17T08:01:44;5.72;;;3.05;;
29634;SDS011;16557;54.762;56.068;2023-08-17T08:04:13;7.53;;;2.62;;
29634;SDS011;16557;54.762;56.068;2023-08-17T08:06:42;14.50;;;3.15;;
29634;SDS011;16557;54.762;56.068;2023-08-17T08:09:11;8.35;;;3.42;;
29634;SDS011;16557;54.762;56.068;2023-08-17T08:11:41;4.67;;;2.95;;
29634;SDS011;16557;54.762;56.068;2023-08-17T08:14:10;11.48;;;4.00;;
29634;SDS011;16557;54.762;56.068;2023-08-17T08:16:40;7.33;;;3.75;;
29634;SDS011;16557;54.762;56.068;2023-08-17T08:19:09;12.68;;;3.42;;
29634;SDS011;16557;54.762;56.068;2023-08-17T08:21:38;9.83;;;3.92;;
29634;SDS011;16557;54.762;56.068;2023-08-17T08:24:08;6.50;;;3.22;;
29634;SDS011;16557;54.762;56.068;2023-08-17T08:26:37;7.87;;;3.17;;
29634;SDS011;16557;54.762;56.068;2023-08-17T08:29:06;10.32;;;3.40;;
29634;SDS011;16557;54.762;56.068;2023-08-17T08:31:35;7.30;;;3.40;;
29634;SDS011;16557;54.762;56.068;2023-08-17T08:34:05;3.62;;;2.58;;
29634;SDS011;16557;54.762;56.068;2023-08-17T08:36:34;7.60;;;3.62;;
29634;SDS011;16557;54.762;56.068;2023-08-17T08:39:03;15.78;;;5.87;;
29634;SDS011;16557;54.762;56.068;2023-08-17T08:41:32;12.73;;;4.00;;
29634;SDS011;16557;54.762;56.068;2023-08-17T08:44:03;7.60;;;3.08;;
29634;SDS011;16557;54.762;56.068;2023-08-17T08:46:32;10.08;;;3.00;;
29634;SDS011;16557;54.762;56.068;2023-08-17T08:49:03;9.73;;;2.92;;
29634;SDS011;16557;54.762;56.068;2023-08-17T08:51:33;5.65;;;2.72;;
29634;SDS011;16557;54.762;56.068;2023-08-17T08:54:04;6.58;;;2.72;;
29634;SDS011;16557;54.762;56.068;2023-08-17T08:56:35;5.25;;;2.80;;
29634;SDS011;16557;54.762;56.068;2023-08-17T08:59:06;5.65;;;2.98;;
29634;SDS011;16557;54.762;56.068;2023-08-17T09:01:36;4.70;;;2.42;;
29634;SDS011;16557;54.762;56.068;2023-08-17T09:04:05;7.22;;;2.50;;
29634;SDS011;16557;54.762;56.068;2023-08-17T09:06:34;5.58;;;2.67;;
29634;SDS011;16557;54.762;56.068;2023-08-17T09:09:05;5.85;;;2.40;;
29634;SDS011;16557;54.762;56.068;2023-08-17T09:11:35;8.80;;;2.98;;
29634;SDS011;16557;54.762;56.068;2023-08-17T09:14:05;7.45;;;2.58;;
29634;SDS011;16557;54.762;56.068;2023-08-17T09:16:35;8.45;;;2.20;;
29634;SDS011;16557;54.762;56.068;2023-08-17T09:19:04;6.20;;;2.25;;
29634;SDS011;16557;54.762;56.068;2023-08-17T09:21:34;11.63;;;2.50;;
29634;SDS011;16557;54.762;56.068;2023-08-17T09:24:04;5.87;;;2.20;;
29634;SDS011;16557;54.762;56.068;2023-08-17T09:26:34;8.03;;;2.30;;
29634;SDS011;16557;54.762;56.068;2023-08-17T09:31:47;10.60;;;2.10;;
29634;SDS011;16557;54.762;56.068;2023-08-17T09:34:16;4.17;;;2.60;;
29634;SDS011;16557;54.762;56.068;2023-08-17T09:36:46;8.90;;;2.30;;
29634;SDS011;16557;54.762;56.068;2023-08-17T09:39:15;8.68;;;2.90;;
29634;SDS011;16557;54.762;56.068;2023-08-17T09:41:45;8.30;;;2.47;;
29634;SDS011;16557;54.762;56.068;2023-08-17T09:44:14;6.00;;;2.25;;
29634;SDS011;16557;54.762;56.068;2023-08-17T09:46:44;8.15;;;2.50;;
29634;SDS011;16557;54.762;56.068;2023-08-17T09:49:13;7.40;;;2.40;;
29634;SDS011;16557;54.762;56.068;2023-08-17T09:51:48;7.30;;;3.02;;
29634;SDS011;16557;54.762;56.068;2023-08-17T09:54:22;5.35;;;2.35;;
29634;SDS011;16557;54.762;56.068;2023-08-17T09:56:53;10.55;;;3.42;;
29634;SDS011;16557;54.762;56.068;2023-08-17T09:59:25;6.30;;;3.77;;
29634;SDS011;16557;54.762;56.068;2023-08-17T10:01:54;11.85;;;7.03;;
29634;SDS011;16557;54.762;56.068;2023-08-17T10:04:23;7.10;;;3.33;;
29634;SDS011;16557;54.762;56.068;2023-08-17T10:06:57;6.25;;;2.37;;
29634;SDS011;16557;54.762;56.068;2023-08-17T10:09:28;7.28;;;2.47;;
29634;SDS011;16557;54.762;56.068;2023-08-17T10:12:08;8.38;;;2.72;;
29634;SDS011;16557;54.762;56.068;2023-08-17T10:14:39;7.22;;;2.72;;
29634;SDS011;16557;54.762;56.068;2023-08-17T10:17:13;5.85;;;2.60;;
29634;SDS011;16557;54.762;56.068;2023-08-17T10:19:52;4.80;;;2.30;;
29634;SDS011;16557;54.762;56.068;2023-08-17T10:25:06;4.12;;;2.17;;
29634;SDS011;16557;54.762;56.068;2023-08-17T10:27:42;5.53;;;3.15;;
29634;SDS011;16557;54.762;56.068;2023-08-17T10:30:12;4.35;;;2.80;;
29634;SDS011;16557;54.762;56.068;2023-08-17T10:32:41;6.17;;;2.52;;
29634;SDS011;16557;54.762;56.068;2023-08-17T10:35:12;7.75;;;2.92;;
29634;SDS011;16557;54.762;56.068;2023-08-17T10:37:42;6.35;;;2.95;;
29634;SDS011;16557;54.762;56.068;2023-08-17T10:40:11;7.95;;;3.50;;
29634;SDS011;16557;54.762;56.068;2023-08-17T10:42:41;7.65;;;3.47;;
29634;SDS011;16557;54.762;56.068;2023-08-17T10:45:30;5.85;;;2.70;;
29634;SDS011;16557;54.762;56.068;2023-08-17T10:50:40;5.00;;;2.72;;
29634;SDS011;16557;54.762;56.068;2023-08-17T10:53:10;9.40;;;3.20;;
29634;SDS011;16557;54.762;56.068;2023-08-17T10:55:41;5.33;;;3.20;;
29634;SDS011;16557;54.762;56.068;2023-08-17T10:58:15;7.28;;;3.10;;
29634;SDS011;16557;54.762;56.068;2023-08-17T11:00:44;11.18;;;3.30;;
29634;SDS011;16557;54.762;56.068;2023-08-17T11:03:17;5.87;;;2.67;;
29634;SDS011;16557;54.762;56.068;2023-08-17T11:05:48;9.25;;;2.80;;
29634;SDS011;16557;54.762;56.068;2023-08-17T11:08:32;6.22;;;2.70;;
29634;SDS011;16557;54.762;56.068;2023-08-17T11:11:10;8.98;;;2.72;;
29634;SDS011;16557;54.762;56.068;2023-08-17T11:13:44;8.43;;;2.80;;
29634;SDS011;16557;54.762;56.068;2023-08-17T11:16:16;9.90;;;2.83;;
29634;SDS011;16557;54.762;56.068;2023-08-17T11:18:49;18.85;;;5.60;;
29634;SDS011;16557;54.762;56.068;2023-08-17T11:21:20;10.48;;;4.08;;
29634;SDS011;16557;54.762;56.068;2023-08-17T11:23:49;8.68;;;2.52;;
29634;SDS011;16557;54.762;56.068;2023-08-17T11:26:18;7.42;;;2.95;;
29634;SDS011;16557;54.762;56.068;2023-08-17T11:28:48;9.40;;;2.87;;
29634;SDS011;16557;54.762;56.068;2023-08-17T11:31:17;7.75;;;2.50;;
29634;SDS011;16557;54.762;56.068;2023-08-17T11:33:46;8.03;;;3.27;;
29634;SDS011;16557;54.762;56.068;2023-08-17T11:36:16;8.53;;;3.58;;
29634;SDS011;16557;54.762;56.068;2023-08-17T11:38:45;8.78;;;2.92;;
29634;SDS011;16557;54.762;56.068;2023-08-17T11:41:14;5.97;;;2.92;;
29634;SDS011;16557;54.762;56.068;2023-08-17T11:43:44;6.55;;;3.00;;
29634;SDS011;16557;54.762;56.068;2023-08-17T11:46:13;15.28;;;5.45;;
29634;SDS011;16557;54.762;56.068;2023-08-17T11:48:43;7.12;;;4.90;;
29634;SDS011;16557;54.762;56.068;2023-08-17T11:51:12;7.90;;;3.08;;
29634;SDS011;16557;54.762;56.068;2023-08-17T11:53:42;9.08;;;3.60;;
29634;SDS011;16557;54.762;56.068;2023-08-17T11:56:11;6.15;;;2.92;;
29634;SDS011;16557;54.762;56.068;2023-08-17T11:58:41;5.97;;;2.40;;
29634;SDS011;16557;54.762;56.068;2023-08-17T12:01:11;12.60;;;3.12;;
29634;SDS011;16557;54.762;56.068;2023-08-17T12:03:42;7.57;;;3.30;;
29634;SDS011;16557;54.762;56.068;2023-08-17T12:06:11;8.03;;;3.47;;
29634;SDS011;16557;54.762;56.068;2023-08-17T12:08:45;5.03;;;2.72;;
29634;SDS011;16557;54.762;56.068;2023-08-17T12:11:18;7.55;;;3.20;;
29634;SDS011;16557;54.762;56.068;2023-08-17T12:13:50;5.87;;;3.30;;
29634;SDS011;16557;54.762;56.068;2023-08-17T12:16:20;5.00;;;2.67;;
29634;SDS011;16557;54.762;56.068;2023-08-17T12:18:50;6.42;;;3.00;;
29634;SDS011;16557;54.762;56.068;2023-08-17T12:21:21;5.72;;;2.95;;
29634;SDS011;16557;54.762;56.068;2023-08-17T12:23:51;7.92;;;2.90;;
29634;SDS011;16557;54.762;56.068;2023-08-17T12:26:21;8.48;;;3.20;;
29634;SDS011;16557;54.762;56.068;2023-08-17T12:28:50;6.70;;;2.87;;
29634;SDS011;16557;54.762;56.068;2023-08-17T12:31:23;14.83;;;3.90;;
29634;SDS011;16557;54.762;56.068;2023-08-17T12:33:52;13.60;;;4.00;;
29634;SDS011;16557;54.762;56.068;2023-08-17T12:36:21;11.03;;;3.77;;
29634;SDS011;16557;54.762;56.068;2023-08-17T12:38:50;5.80;;;2.52;;
29634;SDS011;16557;54.762;56.068;2023-08-17T12:41:20;8.18;;;3.27;;
29634;SDS011;16557;54.762;56.068;2023-08-17T12:43:49;5.30;;;3.05;;
29634;SDS011;16557;54.762;56.068;2023-08-17T12:46:20;11.50;;;3.42;;
29634;SDS011;16557;54.762;56.068;2023-08-17T12:48:49;10.75;;;3.08;;
29634;SDS011;16557;54.762;56.068;2023-08-17T12:51:18;8.23;;;3.55;;
29634;SDS011;16557;54.762;56.068;2023-08-17T12:53:47;10.23;;;4.30;;
29634;SDS011;16557;54.762;56.068;2023-08-17T12:56:16;11.95;;;4.50;;
29634;SDS011;16557;54.762;56.068;2023-08-17T12:58:45;8.50;;;3.65;;
29634;SDS011;16557;54.762;56.068;2023-08-17T13:01:15;10.10;;;3.65;;
29634;SDS011;16557;54.762;56.068;2023-08-17T13:03:46;9.78;;;4.33;;
29634;SDS011;16557;54.762;56.068;2023-08-17T13:06:15;10.95;;;4.35;;
29634;SDS011;16557;54.762;56.068;2023-08-17T13:08:44;10.93;;;4.33;;
29634;SDS011;16557;54.762;56.068;2023-08-17T13:11:13;9.50;;;3.47;;
29634;SDS011;16557;54.762;56.068;2023-08-17T13:13:42;10.40;;;3.00;;
29634;SDS011;16557;54.762;56.068;2023-08-17T13:16:12;12.35;;;4.83;;
29634;SDS011;16557;54.762;56.068;2023-08-17T13:18:41;10.72;;;3.00;;
29634;SDS011;16557;54.762;56.068;2023-08-17T13:21:10;9.95;;;3.42;;
29634;SDS011;16557;54.762;56.068;2023-08-17T13:23:41;7.53;;;2.92;;
29634;SDS011;16557;54.762;56.068;2023-08-17T13:26:11;10.15;;;3.58;;
29634;SDS011;16557;54.762;56.068;2023-08-17T13:28:40;13.68;;;4.15;;
29634;SDS011;16557;54.762;56.068;2023-08-17T13:31:09;8.03;;;3.85;;
29634;SDS011;16557;54.762;56.068;2023-08-17T13:33:38;17.73;;;5.87;;
29634;SDS011;16557;54.762;56.068;2023-08-17T13:36:08;7.85;;;3.33;;
29634;SDS011;16557;54.762;56.068;2023-08-17T13:38:38;14.00;;;3.70;;
29634;SDS011;16557;54.762;56.068;2023-08-17T13:41:08;10.55;;;3.33;;
29634;SDS011;16557;54.762;56.068;2023-08-17T13:43:37;16.57;;;4.37;;
29634;SDS011;16557;54.762;56.068;2023-08-17T13:46:06;10.40;;;4.33;;
29634;SDS011;16557;54.762;56.068;2023-08-17T13:48:35;12.35;;;4.55;;
29634;SDS011;16557;54.762;56.068;2023-08-17T13:51:06;11.60;;;3.95;;
29634;SDS011;16557;54.762;56.068;2023-08-17T13:53:35;8.25;;;3.58;;
29634;SDS011;16557;54.762;56.068;2023-08-17T13:56:04;6.53;;;2.90;;
29634;SDS011;16557;54.762;56.068;2023-08-17T13:58:34;14.00;;;5.30;;
29634;SDS011;16557;54.762;56.068;2023-08-17T14:01:03;16.80;;;5.40;;
29634;SDS011;16557;54.762;56.068;2023-08-17T14:03:32;13.22;;;4.67;;
29634;SDS011;16557;54.762;56.068;2023-08-17T14:06:02;21.12;;;8.58;;
29634;SDS011;16557;54.762;56.068;2023-08-17T14:08:31;25.40;;;9.13;;
29634;SDS011;16557;54.762;56.068;2023-08-17T14:11:00;22.30;;;7.75;;
29634;SDS011;16557;54.762;56.068;2023-08-17T14:13:29;16.30;;;6.75;;
29634;SDS011;16557;54.762;56.068;2023-08-17T14:15:59;13.75;;;5.37;;
29634;SDS011;16557;54.762;56.068;2023-08-17T14:18:28;10.32;;;5.00;;
29634;SDS011;16557;54.762;56.068;2023-08-17T14:20:58;13.35;;;5.33;;
29634;SDS011;16557;54.762;56.068;2023-08-17T14:23:27;13.62;;;6.37;;
29634;SDS011;16557;54.762;56.068;2023-08-17T14:25:57;13.80;;;6.28;;
29634;SDS011;16557;54.762;56.068;2023-08-17T14:28:26;11.30;;;5.50;;
29634;SDS011;16557;54.762;56.068;2023-08-17T14:30:55;9.08;;;4.87;;
29634;SDS011;16557;54.762;56.068;2023-08-17T14:33:25;9.88;;;5.25;;
29634;SDS011;16557;54.762;56.068;2023-08-17T14:35:54;10.43;;;5.47;;
29634;SDS011;16557;54.762;56.068;2023-08-17T14:38:24;11.57;;;5.08;;
29634;SDS011;16557;54.762;56.068;2023-08-17T14:40:53;10.10;;;4.37;;
29634;SDS011;16557;54.762;56.068;2023-08-17T14:43:23;13.32;;;4.20;;
29634;SDS011;16557;54.762;56.068;2023-08-17T14:45:52;14.58;;;4.15;;
29634;SDS011;16557;54.762;56.068;2023-08-17T14:48:21;11.10;;;6.25;;
29634;SDS011;16557;54.762;56.068;2023-08-17T14:50:51;21.77;;;5.55;;
29634;SDS011;16557;54.762;56.068;2023-08-17T14:53:20;12.85;;;4.67;;